createdAt,value
2022-12-15T00:00:03.285Z,26.69
2022-12-15T00:02:50.713Z,26.60
2022-12-15T00:05:37.831Z,26.69
2022-12-15T00:08:27.417Z,26.68
2022-12-15T00:11:13.200Z,26.68
2022-12-15T00:13:58.921Z,26.56
2022-12-15T00:16:44.661Z,26.63
2022-12-15T00:19:30.045Z,26.69
2022-12-15T00:22:16.823Z,26.68
2022-12-15T00:25:02.149Z,26.66
2022-12-15T00:27:47.266Z,26.66
2022-12-15T00:30:32.417Z,26.65
2022-12-15T00:33:17.742Z,26.66
2022-12-15T00:36:02.987Z,26.63
2022-12-15T00:38:44.937Z,26.71
2022-12-15T00:41:14.623Z,26.74
2022-12-15T00:43:42.704Z,26.78
2022-12-15T00:46:28.867Z,26.80
2022-12-15T00:48:57.313Z,26.80
2022-12-15T00:51:43.680Z,26.78
2022-12-15T00:54:31.075Z,26.81
2022-12-15T00:57:16.253Z,26.79
2022-12-15T01:00:01.699Z,26.80
2022-12-15T01:02:47.203Z,26.79
2022-12-15T01:05:32.763Z,26.78
2022-12-15T01:08:18.769Z,26.77
2022-12-15T01:11:05.683Z,26.77
2022-12-15T01:13:50.957Z,26.75
2022-12-15T01:16:36.291Z,26.65
2022-12-15T01:19:21.932Z,26.59
2022-12-15T01:21:49.980Z,26.54
2022-12-15T01:24:18.047Z,26.49
2022-12-15T01:26:47.422Z,26.46
2022-12-15T01:29:15.400Z,26.44
2022-12-15T01:31:44.114Z,26.41
2022-12-15T01:34:12.284Z,26.39
2022-12-15T01:36:40.290Z,26.33
2022-12-15T01:39:08.372Z,26.32
2022-12-15T01:41:35.330Z,26.28
2022-12-15T01:44:21.315Z,26.29
2022-12-15T01:46:53.069Z,26.25
2022-12-15T01:49:24.484Z,26.24
2022-12-15T01:51:56.782Z,26.21
2022-12-15T01:54:29.055Z,26.22
2022-12-15T01:57:01.833Z,26.16
2022-12-15T01:59:36.364Z,26.17
2022-12-15T02:02:05.183Z,26.13
2022-12-15T02:04:34.768Z,26.13
2022-12-15T02:07:02.667Z,26.08
2022-12-15T02:09:31.560Z,26.06
2022-12-15T02:12:06.511Z,26.05
2022-12-15T02:14:59.909Z,26.04
2022-12-15T02:17:38.308Z,26.04
2022-12-15T02:20:43.740Z,26.03
2022-12-15T02:23:54.618Z,25.99
2022-12-15T02:26:52.834Z,25.93
2022-12-15T02:29:39.127Z,25.89
2022-12-15T02:32:10.951Z,25.88
2022-12-15T02:34:44.654Z,25.88
2022-12-15T02:37:18.182Z,25.87
2022-12-15T02:39:46.614Z,25.82
2022-12-15T02:42:15.151Z,25.86
2022-12-15T02:44:47.838Z,25.89
2022-12-15T02:47:28.641Z,25.88
2022-12-15T02:50:19.260Z,25.89
2022-12-15T02:52:58.947Z,25.90
2022-12-15T02:55:38.325Z,25.93
2022-12-15T02:58:12.193Z,25.94
2022-12-15T03:00:46.657Z,25.91
2022-12-15T03:03:20.382Z,25.95
2022-12-15T03:05:49.027Z,25.94
2022-12-15T03:08:17.135Z,25.94
2022-12-15T03:10:45.093Z,25.94
2022-12-15T03:13:14.229Z,25.95
2022-12-15T03:15:42.596Z,25.96
2022-12-15T03:18:10.927Z,25.98
2022-12-15T03:20:40.438Z,25.99
2022-12-15T03:23:08.683Z,25.97
2022-12-15T03:25:36.634Z,25.97
2022-12-15T03:28:04.691Z,25.97
2022-12-15T03:30:32.789Z,25.97
2022-12-15T03:33:00.784Z,25.98
2022-12-15T03:35:28.812Z,25.97
2022-12-15T03:37:58.216Z,25.99
2022-12-15T03:40:26.195Z,25.99
2022-12-15T03:42:54.193Z,25.98
2022-12-15T03:45:24.042Z,25.97
2022-12-15T03:47:52.945Z,25.95
2022-12-15T03:50:24.228Z,25.97
2022-12-15T03:52:53.258Z,25.97
2022-12-15T03:55:23.847Z,25.68
2022-12-15T03:57:52.574Z,25.95
2022-12-15T04:00:22.094Z,25.97
2022-12-15T04:02:52.003Z,25.96
2022-12-15T04:05:21.978Z,25.98
2022-12-15T04:07:50.018Z,25.67
2022-12-15T04:10:18.224Z,25.96
2022-12-15T04:12:47.618Z,25.95
2022-12-15T04:15:16.171Z,25.95
2022-12-15T04:17:44.175Z,25.94
2022-12-15T04:20:12.521Z,25.96
2022-12-15T04:22:42.148Z,25.96
2022-12-15T04:25:29.876Z,25.96
2022-12-15T04:28:17.699Z,25.94
2022-12-15T04:31:06.854Z,25.95
2022-12-15T04:33:53.239Z,25.93
2022-12-15T04:36:38.493Z,25.90
2022-12-15T04:39:24.273Z,25.91
2022-12-15T04:42:10.986Z,25.92
2022-12-15T04:44:58.150Z,25.92
2022-12-15T04:47:43.397Z,25.93
2022-12-15T04:50:28.669Z,25.77
2022-12-15T04:53:14.464Z,25.91
2022-12-15T04:55:59.799Z,25.91
2022-12-15T04:58:45.048Z,25.91
2022-12-15T05:01:32.100Z,25.88
2022-12-15T05:04:17.692Z,25.88
2022-12-15T05:07:03.080Z,25.84
2022-12-15T05:09:48.115Z,25.85
2022-12-15T05:12:33.624Z,25.85
2022-12-15T05:15:18.919Z,25.84
2022-12-15T05:18:05.781Z,25.83
2022-12-15T05:20:51.100Z,25.80
2022-12-15T05:23:36.740Z,25.82
2022-12-15T05:26:22.070Z,25.81
2022-12-15T05:29:08.037Z,25.80
2022-12-15T05:31:51.959Z,25.78
2022-12-15T05:34:23.571Z,25.77
2022-12-15T05:36:52.009Z,25.77
2022-12-15T05:39:21.368Z,25.80
2022-12-15T05:41:49.819Z,25.78
2022-12-15T05:44:18.444Z,25.78
2022-12-15T05:46:47.024Z,25.81
2022-12-15T05:49:16.638Z,25.80
2022-12-15T05:51:47.859Z,25.82
2022-12-15T05:54:18.967Z,25.81
2022-12-15T05:56:50.559Z,25.83
2022-12-15T05:59:20.090Z,25.83
2022-12-15T06:01:48.457Z,25.82
2022-12-15T06:04:16.598Z,25.80
2022-12-15T06:06:46.004Z,25.80
2022-12-15T06:09:13.949Z,25.78
2022-12-15T06:11:42.018Z,25.80
2022-12-15T06:14:10.212Z,25.78
2022-12-15T06:16:44.181Z,25.78
2022-12-15T06:19:17.773Z,25.76
2022-12-15T06:21:47.187Z,25.75
2022-12-15T06:24:15.210Z,25.74
2022-12-15T06:26:43.117Z,25.77
2022-12-15T06:29:13.272Z,25.77
2022-12-15T06:31:42.694Z,25.75
2022-12-15T06:34:14.875Z,25.71
2022-12-15T06:36:43.169Z,25.73
2022-12-15T06:39:15.165Z,25.77
2022-12-15T06:41:43.527Z,25.77
2022-12-15T06:44:14.902Z,25.77
2022-12-15T06:46:43.355Z,25.77
2022-12-15T06:49:11.612Z,25.78
2022-12-15T06:51:41.378Z,25.77
2022-12-15T06:54:11.212Z,25.76
2022-12-15T06:56:40.733Z,25.76
2022-12-15T06:59:09.302Z,25.73
2022-12-15T07:01:37.496Z,25.76
2022-12-15T07:04:06.203Z,25.73
2022-12-15T07:06:37.478Z,25.73
2022-12-15T07:09:08.589Z,25.68
2022-12-15T07:11:36.661Z,25.70
2022-12-15T07:14:06.127Z,25.71
2022-12-15T07:16:34.464Z,25.70
2022-12-15T07:19:02.500Z,25.68
2022-12-15T07:21:30.850Z,25.67
2022-12-15T07:23:59.799Z,25.65
2022-12-15T07:26:28.551Z,25.66
2022-12-15T07:28:56.765Z,25.65
2022-12-15T07:31:26.239Z,25.66
2022-12-15T07:33:54.816Z,25.64
2022-12-15T07:36:22.980Z,25.66
2022-12-15T07:38:51.598Z,25.64
2022-12-15T07:41:21.219Z,25.63
2022-12-15T07:43:49.467Z,25.60
2022-12-15T07:46:18.370Z,25.61
2022-12-15T07:48:50.368Z,25.60
2022-12-15T07:51:21.255Z,25.56
2022-12-15T07:53:50.991Z,25.59
2022-12-15T07:56:19.920Z,25.56
2022-12-15T07:58:48.646Z,25.56
2022-12-15T08:01:17.500Z,25.56
2022-12-15T08:03:48.342Z,25.63
2022-12-15T08:06:17.204Z,25.60
2022-12-15T08:08:50.537Z,25.50
2022-12-15T08:11:20.537Z,25.62
2022-12-15T08:14:05.676Z,25.61
2022-12-15T08:16:36.617Z,25.61
2022-12-15T08:19:07.441Z,25.52
2022-12-15T08:21:35.611Z,25.67
2022-12-15T08:24:04.140Z,25.68
2022-12-15T08:26:32.200Z,25.66
2022-12-15T08:29:31.875Z,25.66
2022-12-15T08:31:52.055Z,25.63
2022-12-15T08:34:21.554Z,25.62
2022-12-15T08:36:49.536Z,25.60
2022-12-15T08:39:17.749Z,25.59
2022-12-15T08:41:46.237Z,25.60
2022-12-15T08:44:16.785Z,25.59
2022-12-15T08:46:44.885Z,25.55
2022-12-15T08:49:17.892Z,25.56
2022-12-15T08:51:51.763Z,25.55
2022-12-15T08:54:21.288Z,25.54
2022-12-15T08:56:49.992Z,25.26
2022-12-15T08:59:19.081Z,25.50
2022-12-15T09:01:47.371Z,25.53
2022-12-15T09:04:15.641Z,25.54
2022-12-15T09:06:43.675Z,25.55
2022-12-15T09:09:14.659Z,25.58
2022-12-15T09:11:42.616Z,25.61
2022-12-15T09:14:10.594Z,25.67
2022-12-15T09:16:38.685Z,25.71
2022-12-15T09:19:08.306Z,25.72
2022-12-15T09:21:36.540Z,25.74
2022-12-15T09:24:05.332Z,25.72
2022-12-15T09:26:36.039Z,25.72
2022-12-15T09:29:04.520Z,25.75
2022-12-15T09:31:34.873Z,25.84
2022-12-15T09:34:03.878Z,25.91
2022-12-15T09:36:33.443Z,25.99
2022-12-15T09:39:03.015Z,26.07
2022-12-15T09:41:33.008Z,26.14
2022-12-15T09:44:06.534Z,26.19
2022-12-15T09:46:50.202Z,26.25
2022-12-15T09:49:35.571Z,26.30
2022-12-15T09:52:11.264Z,26.31
2022-12-15T09:54:41.764Z,26.28
2022-12-15T09:57:17.609Z,26.40
2022-12-15T10:00:05.278Z,26.45
2022-12-15T10:02:56.813Z,26.47
2022-12-15T10:06:07.061Z,26.50
2022-12-15T10:08:31.270Z,26.55
2022-12-15T10:11:01.679Z,26.58
2022-12-15T10:13:39.619Z,26.66
2022-12-15T10:16:22.068Z,26.60
2022-12-15T10:19:01.708Z,26.68
2022-12-15T10:21:32.576Z,26.54
2022-12-15T10:24:11.283Z,26.70
2022-12-15T10:26:42.626Z,26.61
2022-12-15T10:29:24.392Z,26.74
2022-12-15T10:31:55.575Z,26.72
2022-12-15T10:34:27.850Z,26.77
2022-12-15T10:36:57.255Z,26.85
2022-12-15T10:39:37.293Z,26.98
2022-12-15T10:42:15.011Z,27.17
2022-12-15T10:44:44.965Z,27.27
2022-12-15T10:47:23.134Z,27.37
2022-12-15T10:49:51.612Z,27.36
2022-12-15T10:52:27.524Z,27.53
2022-12-15T10:54:56.553Z,27.48
2022-12-15T10:57:28.840Z,27.47
2022-12-15T10:59:58.646Z,27.38
2022-12-15T11:02:37.483Z,27.41
2022-12-15T11:05:16.633Z,27.42
2022-12-15T11:07:47.753Z,27.40
2022-12-15T11:10:21.603Z,27.45
2022-12-15T11:12:59.321Z,27.41
2022-12-15T11:15:50.670Z,27.39
2022-12-15T11:18:33.610Z,27.41
2022-12-15T11:21:06.613Z,27.43
2022-12-15T11:23:48.924Z,27.50
2022-12-15T11:26:30.327Z,27.51
2022-12-15T11:29:02.992Z,27.29
2022-12-15T11:31:36.132Z,27.53
2022-12-15T11:34:12.936Z,27.50
2022-12-15T11:37:04.541Z,27.58
2022-12-15T11:39:46.956Z,27.60
2022-12-15T11:42:23.848Z,27.60
2022-12-15T11:45:03.216Z,27.60
2022-12-15T11:47:40.786Z,27.56
2022-12-15T11:50:24.661Z,27.50
2022-12-15T11:53:15.920Z,27.51
2022-12-15T11:55:53.101Z,27.49
2022-12-15T11:58:52.102Z,27.47
2022-12-15T12:01:38.473Z,27.41
2022-12-15T12:04:17.629Z,27.46
2022-12-15T12:06:56.371Z,27.43
2022-12-15T12:09:31.743Z,27.42
2022-12-15T12:12:16.863Z,27.39
2022-12-15T12:14:53.059Z,27.35
2022-12-15T12:17:31.677Z,27.36
2022-12-15T12:20:11.022Z,27.34
2022-12-15T12:22:45.611Z,27.35
2022-12-15T12:25:18.626Z,27.37
2022-12-15T12:27:53.081Z,27.38
2022-12-15T12:30:23.002Z,27.39
2022-12-15T12:32:59.573Z,27.40
2022-12-15T12:35:33.369Z,27.44
2022-12-15T12:38:05.128Z,27.43
2022-12-15T12:40:46.411Z,27.49
2022-12-15T12:43:31.917Z,27.49
2022-12-15T12:46:05.445Z,27.45
2022-12-15T12:48:37.689Z,27.44
2022-12-15T12:51:18.894Z,27.36
2022-12-15T12:53:48.750Z,27.37
2022-12-15T12:56:38.842Z,27.39
2022-12-15T12:59:38.684Z,27.37
2022-12-15T13:02:56.341Z,27.33
2022-12-15T13:05:31.138Z,27.33
2022-12-15T13:08:34.683Z,27.38
2022-12-15T13:12:14.914Z,27.35
2022-12-15T13:14:51.642Z,27.27
2022-12-15T13:17:30.341Z,27.28
2022-12-15T13:20:28.935Z,27.27
2022-12-15T13:23:13.058Z,27.28
2022-12-15T13:25:48.546Z,27.27
2022-12-15T13:28:31.323Z,27.29
2022-12-15T13:31:35.946Z,27.27
2022-12-15T13:34:17.748Z,27.23
2022-12-15T13:36:55.308Z,27.22
2022-12-15T13:39:58.738Z,27.15
2022-12-15T13:42:35.961Z,27.15
2022-12-15T13:45:26.830Z,27.13
2022-12-15T13:47:57.359Z,27.08
2022-12-15T13:50:33.587Z,27.08
2022-12-15T13:53:20.492Z,27.05
2022-12-15T13:56:01.644Z,27.04
2022-12-15T13:58:34.824Z,27.03
2022-12-15T14:01:05.178Z,27.04
2022-12-15T14:03:33.614Z,27.03
2022-12-15T14:06:02.613Z,27.02
2022-12-15T14:08:32.113Z,27.03
2022-12-15T14:11:07.034Z,27.01
2022-12-15T14:13:40.342Z,27.01
2022-12-15T14:16:19.677Z,27.06
2022-12-15T14:19:05.091Z,27.05
2022-12-15T14:21:32.984Z,27.05
2022-12-15T14:24:37.161Z,27.04
2022-12-15T14:26:50.567Z,27.06
2022-12-15T14:29:18.950Z,27.07
2022-12-15T14:31:52.201Z,27.07
2022-12-15T14:34:27.181Z,26.99
2022-12-15T14:36:57.274Z,26.95
2022-12-15T14:39:29.539Z,27.10
2022-12-15T14:41:59.059Z,27.10
2022-12-15T14:44:38.052Z,27.14
2022-12-15T14:47:17.178Z,27.16
2022-12-15T14:49:46.504Z,27.17
2022-12-15T14:52:26.758Z,27.20
2022-12-15T14:54:57.624Z,27.17
2022-12-15T14:57:28.091Z,27.15
2022-12-15T14:59:56.118Z,27.13
2022-12-15T15:02:28.841Z,27.11
2022-12-15T15:04:59.820Z,27.08
2022-12-15T15:07:29.668Z,27.06
2022-12-15T15:09:57.992Z,27.05
2022-12-15T15:12:35.995Z,26.81
2022-12-15T15:15:07.908Z,27.06
2022-12-15T15:17:44.887Z,27.06
2022-12-15T15:20:19.992Z,27.05
2022-12-15T15:23:02.763Z,27.04
2022-12-15T15:25:40.003Z,27.04
2022-12-15T15:28:24.235Z,27.00
2022-12-15T15:30:56.240Z,27.00
2022-12-15T15:33:26.738Z,26.99
2022-12-15T15:35:57.159Z,27.02
2022-12-15T15:38:28.059Z,26.96
2022-12-15T15:40:58.092Z,26.95
2022-12-15T15:43:27.306Z,26.95
2022-12-15T15:46:00.156Z,26.93
2022-12-15T15:48:33.423Z,26.91
2022-12-15T15:51:02.106Z,26.87
2022-12-15T15:53:33.438Z,26.87
2022-12-15T15:56:03.376Z,26.86
2022-12-15T15:58:31.614Z,26.84
2022-12-15T16:00:59.912Z,26.83
2022-12-15T16:03:29.753Z,26.83
2022-12-15T16:05:57.891Z,26.82
2022-12-15T16:08:29.276Z,26.84
2022-12-15T16:10:57.480Z,26.82
2022-12-15T16:13:26.479Z,26.80
2022-12-15T16:15:55.362Z,26.74
2022-12-15T16:18:23.307Z,26.78
2022-12-15T16:20:54.372Z,26.75
2022-12-15T16:23:25.121Z,26.71
2022-12-15T16:25:55.301Z,26.67
2022-12-15T16:28:24.863Z,26.62
2022-12-15T16:30:53.526Z,26.62
2022-12-15T16:33:22.270Z,26.59
2022-12-15T16:35:52.692Z,26.56
2022-12-15T16:38:25.611Z,26.51
2022-12-15T16:40:55.474Z,26.45
2022-12-15T16:43:32.930Z,26.44
2022-12-15T16:46:04.844Z,26.41
2022-12-15T16:48:33.279Z,26.38
2022-12-15T16:51:02.840Z,26.33
2022-12-15T16:53:32.984Z,26.24
2022-12-15T16:56:03.989Z,26.28
2022-12-15T16:58:33.336Z,26.10
2022-12-15T17:01:01.464Z,26.21
2022-12-15T17:03:29.459Z,26.17
2022-12-15T17:06:00.908Z,26.15
2022-12-15T17:08:36.401Z,26.11
2022-12-15T17:11:05.102Z,26.06
2022-12-15T17:13:40.564Z,26.05
2022-12-15T17:16:15.014Z,26.01
2022-12-15T17:18:44.605Z,25.99
2022-12-15T17:21:16.884Z,25.99
2022-12-15T17:23:48.919Z,25.94
2022-12-15T17:26:29.117Z,25.93
2022-12-15T17:29:00.933Z,25.91
2022-12-15T17:31:35.122Z,25.88
2022-12-15T17:34:14.670Z,25.85
2022-12-15T17:36:42.796Z,25.82
2022-12-15T17:39:14.333Z,25.82
2022-12-15T17:41:59.322Z,25.82
2022-12-15T17:44:38.635Z,25.79
2022-12-15T17:47:10.893Z,25.77
2022-12-15T17:49:39.359Z,25.62
2022-12-15T17:52:16.354Z,25.73
2022-12-15T17:54:45.752Z,25.70
2022-12-15T17:57:13.799Z,25.66
2022-12-15T17:59:41.685Z,25.66
2022-12-15T18:02:12.883Z,25.64
2022-12-15T18:04:41.410Z,25.61
2022-12-15T18:07:16.492Z,25.62
2022-12-15T18:09:46.162Z,25.58
2022-12-15T18:12:19.472Z,25.59
2022-12-15T18:14:47.871Z,25.55
2022-12-15T18:17:16.074Z,25.54
2022-12-15T18:19:43.976Z,25.51
2022-12-15T18:22:14.473Z,25.49
2022-12-15T18:24:42.483Z,25.45
2022-12-15T18:27:24.027Z,25.44
2022-12-15T18:29:52.379Z,25.04
2022-12-15T18:32:22.637Z,25.32
2022-12-15T18:34:50.610Z,25.32
2022-12-15T18:37:20.362Z,25.29
2022-12-15T18:39:48.648Z,25.14
2022-12-15T18:42:17.927Z,25.20
2022-12-15T18:44:49.555Z,25.18
2022-12-15T18:47:18.923Z,25.15
2022-12-15T18:49:47.102Z,25.15
2022-12-15T18:52:18.511Z,25.14
2022-12-15T18:54:47.896Z,25.11
2022-12-15T18:57:28.868Z,25.09
2022-12-15T19:00:00.638Z,25.05
2022-12-15T19:02:28.727Z,25.07
2022-12-15T19:04:56.818Z,25.07
2022-12-15T19:07:24.908Z,25.08
2022-12-15T19:09:53.352Z,25.07
2022-12-15T19:12:21.385Z,25.08
2022-12-15T19:14:51.435Z,25.09
2022-12-15T19:17:40.682Z,25.10
2022-12-15T19:20:33.993Z,25.08
2022-12-15T19:23:02.074Z,25.08
2022-12-15T19:25:30.859Z,25.05
2022-12-15T19:28:00.831Z,25.07
2022-12-15T19:30:30.955Z,25.06
2022-12-15T19:33:00.235Z,25.05
2022-12-15T19:35:30.343Z,25.03
2022-12-15T19:37:59.996Z,25.01
2022-12-15T19:40:31.384Z,25.00
2022-12-15T19:43:00.209Z,24.98
2022-12-15T19:45:30.328Z,24.95
2022-12-15T19:47:58.403Z,24.92
2022-12-15T19:50:30.696Z,24.94
2022-12-15T19:53:01.514Z,24.90
2022-12-15T19:55:33.642Z,24.86
2022-12-15T19:58:02.013Z,24.81
2022-12-15T20:00:29.925Z,24.78
2022-12-15T20:02:58.063Z,24.76
2022-12-15T20:05:27.575Z,24.75
2022-12-15T20:07:55.874Z,24.72
2022-12-15T20:10:32.255Z,24.70
2022-12-15T20:13:01.342Z,24.64
2022-12-15T20:15:29.539Z,24.62
2022-12-15T20:17:58.013Z,24.61
2022-12-15T20:20:29.879Z,24.58
2022-12-15T20:23:00.810Z,24.57
2022-12-15T20:25:31.598Z,24.55
2022-12-15T20:28:01.336Z,24.43
2022-12-15T20:30:32.459Z,24.47
2022-12-15T20:33:00.996Z,24.45
2022-12-15T20:35:33.290Z,24.44
2022-12-15T20:38:04.355Z,24.32
2022-12-15T20:40:33.063Z,24.31
2022-12-15T20:43:00.943Z,24.34
2022-12-15T20:45:29.370Z,24.36
2022-12-15T20:47:57.646Z,24.34
2022-12-15T20:50:41.191Z,23.96
2022-12-15T20:53:14.940Z,24.32
2022-12-15T20:55:43.276Z,24.29
2022-12-15T20:58:11.641Z,24.27
2022-12-15T21:00:40.270Z,24.13
2022-12-15T21:03:24.526Z,24.26
2022-12-15T21:05:56.414Z,24.23
2022-12-15T21:08:26.335Z,24.25
2022-12-15T21:10:57.280Z,24.25
2022-12-15T21:13:27.866Z,24.26
2022-12-15T21:15:56.053Z,24.27
2022-12-15T21:21:20.804Z,24.36
2022-12-15T21:23:49.214Z,24.37
2022-12-15T21:26:20.681Z,24.41
2022-12-15T21:28:49.459Z,24.41
2022-12-15T21:31:19.476Z,24.43
2022-12-15T21:33:47.588Z,24.43
2022-12-15T21:36:19.443Z,24.45
2022-12-15T21:38:50.290Z,24.47
2022-12-15T21:41:23.029Z,24.49
2022-12-15T21:43:51.595Z,24.51
2022-12-15T21:46:24.744Z,24.53
2022-12-15T21:49:13.435Z,24.46
2022-12-15T21:51:45.331Z,24.58
2022-12-15T21:54:18.186Z,24.57
2022-12-15T21:56:46.447Z,24.54
2022-12-15T21:59:15.837Z,24.52
2022-12-15T22:01:44.307Z,24.49
2022-12-15T22:04:18.308Z,24.44
2022-12-15T22:06:50.813Z,24.39
2022-12-15T22:09:21.236Z,24.35
2022-12-15T22:11:52.934Z,24.25
2022-12-15T22:14:26.005Z,24.25
2022-12-15T22:16:54.047Z,23.92
2022-12-15T22:19:23.045Z,24.11
2022-12-15T22:21:52.702Z,24.16
2022-12-15T22:24:20.942Z,24.13
2022-12-15T22:26:49.226Z,23.83
2022-12-15T22:29:20.438Z,24.08
2022-12-15T22:31:49.541Z,24.12
2022-12-15T22:34:19.656Z,24.26
2022-12-15T22:36:47.919Z,24.08
2022-12-15T22:39:18.869Z,24.45
2022-12-15T22:41:49.972Z,24.49
2022-12-15T22:44:21.440Z,24.22
2022-12-15T22:46:50.017Z,24.52
2022-12-15T22:49:22.252Z,24.52
2022-12-15T22:51:50.380Z,24.47
2022-12-15T22:54:20.881Z,24.36
2022-12-15T22:56:52.089Z,24.42
2022-12-15T22:59:26.229Z,24.43
2022-12-15T23:01:54.611Z,24.45
2022-12-15T23:04:22.868Z,24.47
2022-12-15T23:06:50.856Z,24.48
2022-12-15T23:09:21.062Z,24.53
2022-12-15T23:11:48.249Z,24.24
2022-12-15T23:14:18.847Z,24.52
2022-12-15T23:16:46.617Z,24.20
2022-12-15T23:19:24.009Z,24.48
2022-12-15T23:21:52.209Z,24.47
2022-12-15T23:24:21.947Z,24.41
2022-12-15T23:26:49.947Z,24.36
2022-12-15T23:29:18.059Z,24.26
2022-12-15T23:31:46.139Z,24.31
2022-12-15T23:34:14.309Z,24.37
2022-12-15T23:36:42.243Z,24.44
2022-12-15T23:39:10.267Z,24.46
2022-12-15T23:41:39.623Z,24.49
2022-12-15T23:44:07.548Z,24.50
2022-12-15T23:46:35.663Z,24.46
2022-12-15T23:49:03.634Z,24.56
2022-12-15T23:51:31.619Z,24.58
2022-12-15T23:53:59.721Z,24.60
2022-12-15T23:56:27.815Z,24.42
2022-12-15T23:58:58.702Z,24.44
